Time;durP1;ratioP1;P1;durP2;ratioP2;P2;SDS_P1;SDS_P2;PMS_P1;PMS_P2;Temp;Humidity;BMP_temperature;BMP_pressure;BME280_temperature;BME280_humidity;BME280_pressure;Samples;Min_cycle;Max_cycle;Signal;HPM_P1;HPM_P2
2021/12/14 05:30:18;;;;;;;;;25.00;14.50;;;;;8.88;73.16;102445.28;5975058;23;47024;31
2021/12/14 05:32:45;;;;;;;;;16.50;11.75;;;;;8.84;72.33;102433.75;4920007;28;45387;-54
2021/12/14 05:35:13;;;;;;;;;21.75;15.50;;;;;8.77;72.78;102439.16;4922145;28;45523;-54
2021/12/14 05:37:46;;;;;;;;;15.25;15.25;;;;;8.79;72.56;102451.63;4922173;28;45308;-53
2021/12/14 05:43:06;;;;;;;;;17.00;14.75;;;;;8.71;72.71;102445.47;4903298;28;45345;-54
2021/12/14 05:45:40;;;;;;;;;22.75;13.50;;;;;8.65;72.90;102440.22;4903200;28;45331;-52
2021/12/14 05:48:08;;;;;;;;;12.75;12.75;;;;;8.57;73.67;102439.41;4902803;28;45430;-52
2021/12/14 05:50:38;;;;;;;;;16.50;15.50;;;;;8.59;73.71;102441.13;4901782;28;45343;-52
2021/12/14 05:53:06;;;;;;;;;16.00;14.00;;;;;8.61;73.75;102450.03;4903094;28;45750;-53
2021/12/14 05:55:35;;;;;;;;;13.00;11.00;;;;;8.64;73.17;102444.66;4903373;28;45262;-51
2021/12/14 05:58:04;;;;;;;;;15.25;13.25;;;;;8.64;72.92;102451.81;4902983;28;45245;-53
2021/12/14 06:00:30;;;;;;;;;14.25;12.50;;;;;8.63;73.23;102453.59;4902916;28;46215;-50
2021/12/14 06:02:56;;;;;;;;;17.25;13.50;;;;;8.58;73.49;102446.53;4902908;28;45355;-55
2021/12/14 06:05:23;;;;;;;;;17.75;11.25;;;;;8.59;72.94;102456.31;4903262;28;45494;-53
2021/12/14 06:07:49;;;;;;;;;15.50;14.50;;;;;8.57;72.83;102452.78;4903032;28;45343;-54
2021/12/14 06:10:20;;;;;;;;;14.00;13.50;;;;;8.55;73.06;102451.91;4902767;28;45354;-54
2021/12/14 06:12:45;;;;;;;;;14.00;12.75;;;;;8.49;73.16;102466.22;4902848;28;45267;-52
2021/12/14 06:15:18;;;;;;;;;18.50;9.25;;;;;8.38;73.71;102475.22;4898695;28;45336;-55
2021/12/14 06:17:45;;;;;;;;;13.00;11.50;;;;;8.35;73.84;102487.72;4899471;29;45442;-54
2021/12/14 06:20:15;;;;;;;;;14.50;12.75;;;;;8.40;73.50;102484.13;4902551;28;46432;-53
2021/12/14 06:22:42;;;;;;;;;14.00;10.75;;;;;8.46;73.58;102500.97;4902903;28;46165;-55
2021/12/14 06:25:20;;;;;;;;;15.25;13.00;;;;;8.46;73.58;102492.06;4903116;28;45462;-56
2021/12/14 06:27:46;;;;;;;;;14.75;11.75;;;;;8.41;72.96;102507.28;4902666;29;45488;-53
2021/12/14 06:30:16;;;;;;;;;10.00;9.50;;;;;8.31;72.75;102511.81;4902440;28;46174;-53
2021/12/14 06:32:47;;;;;;;;;9.50;5.50;;;;;8.16;73.54;102488.75;4902611;29;45306;-54
2021/12/14 06:35:20;;;;;;;;;16.00;12.75;;;;;8.27;73.68;102505.56;4902584;28;45385;-51
2021/12/14 06:40:48;;;;;;;;;17.00;13.50;;;;;8.26;72.99;102502.91;4902149;28;46218;-52
2021/12/14 06:43:18;;;;;;;;;9.00;7.50;;;;;8.18;73.74;102513.66;4902567;28;45411;-57
2021/12/14 06:45:48;;;;;;;;;7.75;7.50;;;;;8.11;73.70;102514.59;4902809;28;45221;-53
2021/12/14 06:48:20;;;;;;;;;14.50;10.50;;;;;8.09;74.03;102520.84;4902076;28;45497;-53
2021/12/14 06:50:52;;;;;;;;;17.25;10.75;;;;;8.06;73.92;102516.44;4901158;29;48292;-54
2021/12/14 06:53:19;;;;;;;;;15.25;13.50;;;;;8.10;73.96;102517.28;4902204;28;45278;-53
2021/12/14 06:55:45;;;;;;;;;10.25;7.25;;;;;8.07;74.55;102522.66;4902978;29;45381;-56
2021/12/14 06:58:20;;;;;;;;;12.25;10.75;;;;;8.16;73.75;102522.59;4902100;29;45304;-54
2021/12/14 07:01:01;;;;;;;;;20.00;13.25;;;;;8.16;73.68;102519.94;4902114;29;46431;-51
2021/12/14 07:03:44;;;;;;;;;12.75;10.25;;;;;8.01;74.41;102517.34;4901381;28;45383;-52
2021/12/14 07:06:13;;;;;;;;;7.75;6.75;;;;;7.96;73.92;102528.97;4902117;28;45363;-53
2021/12/14 07:08:39;;;;;;;;;16.25;12.00;;;;;7.85;74.34;102533.47;4901867;28;45559;-54
2021/12/14 07:11:05;;;;;;;;;16.50;12.75;;;;;7.85;74.95;102530.81;4902062;28;47357;-54
2021/12/14 07:13:38;;;;;;;;;16.25;10.75;;;;;7.90;74.85;102529.00;4901953;28;45254;-54
2021/12/14 07:16:21;;;;;;;;;17.00;13.00;;;;;8.03;74.42;102536.91;4902079;28;45493;-53
2021/12/14 07:18:56;;;;;;;;;15.75;11.75;;;;;8.11;74.36;102522.63;4901701;28;46231;-53
2021/12/14 07:21:46;;;;;;;;;16.75;12.00;;;;;8.17;74.37;102521.66;4901904;28;45362;-53
2021/12/14 07:24:21;;;;;;;;;15.25;12.00;;;;;8.14;73.88;102522.59;4902050;28;45315;-56
2021/12/14 07:27:07;;;;;;;;;15.25;12.00;;;;;8.12;73.48;102512.81;4905684;29;45414;-55
2021/12/14 07:29:32;;;;;;;;;12.75;11.50;;;;;8.13;74.24;102523.50;4905756;28;45198;-53
2021/12/14 07:31:58;;;;;;;;;26.25;16.00;;;;;8.14;73.74;102530.63;4904598;28;45981;-53
2021/12/14 07:34:23;;;;;;;;;19.75;16.00;;;;;8.12;74.19;102532.41;4904923;28;45150;-53
2021/12/14 07:36:50;;;;;;;;;17.00;13.75;;;;;8.10;74.35;102525.28;4905215;28;45462;-51
2021/12/14 07:39:19;;;;;;;;;17.00;12.50;;;;;8.07;74.72;102525.34;4904846;28;45816;-52
2021/12/14 07:41:48;;;;;;;;;16.75;14.25;;;;;8.18;74.54;102534.13;4904742;28;47178;-53
2021/12/14 07:44:24;;;;;;;;;12.75;9.00;;;;;8.22;74.09;102531.44;4905042;28;45383;-54
2021/12/14 07:46:49;;;;;;;;;18.00;15.25;;;;;8.14;73.94;102540.41;4904906;28;45542;-52
2021/12/14 07:49:33;;;;;;;;;15.00;11.50;;;;;8.06;74.14;102536.91;4904574;28;45498;-50
2021/12/14 07:52:09;;;;;;;;;17.75;12.75;;;;;8.10;74.20;102539.53;4904735;28;46220;-52
2021/12/14 07:54:43;;;;;;;;;15.75;14.25;;;;;8.14;74.32;102551.09;4904698;28;45529;-51
2021/12/14 07:57:14;;;;;;;;;12.00;10.00;;;;;8.15;74.10;102553.78;4905009;29;45241;-52
2021/12/14 07:59:46;;;;;;;;;20.00;17.50;;;;;8.15;74.28;102551.09;4904573;29;45486;-52
2021/12/14 08:02:37;;;;;;;;;16.50;12.75;;;;;8.23;74.19;102554.59;4904980;28;46393;-53
2021/12/14 08:05:22;;;;;;;;;17.00;15.25;;;;;8.34;73.68;102562.53;4904360;29;45173;-55
2021/12/14 08:08:14;;;;;;;;;19.75;15.00;;;;;8.30;73.28;102566.13;4904661;28;45174;-53
2021/12/14 08:11:29;;;;;;;;;18.25;17.25;;;;;8.09;73.93;102561.81;4904502;28;45403;-54
2021/12/14 08:14:12;;;;;;;;;16.75;12.75;;;;;7.99;74.55;102577.00;4904341;29;46252;-54
2021/12/14 08:16:43;;;;;;;;;16.50;13.00;;;;;7.96;74.82;102585.03;4904227;28;45284;-51
2021/12/14 08:19:31;;;;;;;;;19.00;16.75;;;;;7.93;74.77;102586.84;4904232;28;45302;-53
2021/12/14 08:21:59;;;;;;;;;21.25;17.00;;;;;7.93;75.16;102589.50;4904148;28;45434;-51
2021/12/14 08:24:25;;;;;;;;;18.25;11.25;;;;;7.96;75.39;102594.84;4904150;28;46177;-51
2021/12/14 08:26:55;;;;;;;;;20.50;17.50;;;;;8.02;74.79;102591.22;4904222;28;45260;-50
2021/12/14 08:29:29;;;;;;;;;22.75;15.00;;;;;7.94;74.67;102592.16;4904378;28;45402;-51
2021/12/14 08:32:20;;;;;;;;;18.00;14.25;;;;;7.94;74.94;102586.84;4903974;28;46139;-54
2021/12/14 08:34:47;;;;;;;;;19.00;12.00;;;;;7.99;74.79;102602.84;4903853;29;46161;-52
2021/12/14 08:37:37;;;;;;;;;16.75;14.50;;;;;7.96;74.81;102587.72;4903034;28;45249;-52
2021/12/14 08:40:11;;;;;;;;;19.50;16.75;;;;;8.05;74.80;102594.78;4904333;28;45368;-53
2021/12/14 08:45:28;;;;;;;;;22.50;16.25;;;;;8.11;74.27;102594.75;4903886;29;45207;-53
2021/12/14 08:47:56;;;;;;;;;20.50;15.50;;;;;8.14;74.59;102588.50;4903959;28;45478;-52
2021/12/14 08:50:22;;;;;;;;;20.50;16.00;;;;;8.18;74.33;102600.94;4904014;28;45255;-54
2021/12/14 08:52:50;;;;;;;;;20.00;16.50;;;;;8.20;74.05;102601.81;4904083;28;45391;-52
2021/12/14 08:55:17;;;;;;;;;15.75;13.50;;;;;8.25;74.54;102608.88;4903693;28;46950;-55
2021/12/14 08:57:43;;;;;;;;;19.50;17.50;;;;;8.37;73.81;102607.06;4904004;28;45398;-55
2021/12/14 09:00:30;;;;;;;;;18.75;17.50;;;;;8.43;73.46;102615.94;4903810;29;45181;-54
2021/12/14 09:02:59;;;;;;;;;18.00;13.50;;;;;8.53;73.24;102620.31;4903513;28;45410;-54
2021/12/14 09:05:29;;;;;;;;;17.25;17.00;;;;;8.60;73.11;102613.13;4904109;28;45922;-57
2021/12/14 09:07:55;;;;;;;;;25.50;17.00;;;;;8.55;72.97;102605.16;4903797;29;45530;-54
2021/12/14 09:10:25;;;;;;;;;21.50;16.50;;;;;8.59;72.87;102611.38;4903928;28;45373;-55
2021/12/14 09:12:55;;;;;;;;;17.00;14.75;;;;;8.64;73.19;102598.84;4903704;29;45315;-52
2021/12/14 09:15:32;;;;;;;;;21.75;19.25;;;;;8.63;72.91;102599.75;4903722;29;45314;-55
2021/12/14 09:17:58;;;;;;;;;21.75;18.25;;;;;8.58;72.55;102590.88;4903483;28;45308;-52
2021/12/14 09:20:31;;;;;;;;;25.00;18.00;;;;;8.51;73.33;102583.78;4903709;28;45275;-52
2021/12/14 09:23:05;;;;;;;;;19.25;18.50;;;;;8.60;73.45;102594.41;4903541;29;45569;-52
2021/12/14 09:25:31;;;;;;;;;22.00;15.75;;;;;8.67;73.01;102593.50;4903506;28;46357;-53
2021/12/14 09:27:59;;;;;;;;;21.50;16.25;;;;;8.62;72.90;102598.84;4903713;28;45336;-52
2021/12/14 09:30:28;;;;;;;;;24.00;19.00;;;;;8.65;72.65;102606.88;4903603;28;45171;-54
2021/12/14 09:32:55;;;;;;;;;25.00;19.00;;;;;8.73;72.48;102607.69;4903175;28;46071;-52
2021/12/14 09:35:25;;;;;;;;;30.50;20.25;;;;;8.79;72.21;102605.84;4903329;28;46712;-54
2021/12/14 09:37:53;;;;;;;;;23.25;20.00;;;;;8.81;72.37;102609.41;4903275;28;45307;-53
2021/12/14 09:40:25;;;;;;;;;25.50;20.75;;;;;8.79;72.49;102608.53;4903123;28;45193;-53
2021/12/14 09:42:50;;;;;;;;;21.75;16.00;;;;;8.87;71.92;102614.69;4903279;28;45383;-55
2021/12/14 09:45:22;;;;;;;;;18.75;16.25;;;;;8.73;71.99;102599.66;4903041;28;46299;-54
2021/12/14 09:47:49;;;;;;;;;14.75;12.25;;;;;8.84;72.65;102612.06;4902650;28;45398;-56
2021/12/14 09:50:23;;;;;;;;;19.25;16.75;;;;;8.86;72.42;102610.22;4903145;28;45201;-51
2021/12/14 09:52:49;;;;;;;;;19.75;18.50;;;;;8.77;72.31;102599.63;4903229;28;45426;-52
2021/12/14 09:55:21;;;;;;;;;22.75;20.75;;;;;8.85;72.45;102629.84;4903086;28;46313;-55
2021/12/14 09:57:54;;;;;;;;;22.50;18.00;;;;;8.86;72.54;102629.84;4902795;28;45328;-53
2021/12/14 10:00:28;;;;;;;;;17.75;14.50;;;;;8.93;72.16;102628.03;4902834;29;45457;-51
2021/12/14 10:02:56;;;;;;;;;23.50;19.25;;;;;9.03;72.14;102622.56;4901327;29;45508;-52
2021/12/14 10:05:29;;;;;;;;;23.75;16.50;;;;;9.06;71.56;102632.34;4903180;28;45350;-54
2021/12/14 10:07:57;;;;;;;;;21.75;16.00;;;;;9.11;71.88;102623.38;4902950;28;46502;-49
2021/12/14 10:10:23;;;;;;;;;21.75;19.00;;;;;9.19;71.12;102627.75;4903146;28;45349;-53
2021/12/14 10:12:53;;;;;;;;;17.50;16.25;;;;;9.22;71.42;102625.06;4902691;28;45565;-52
2021/12/14 10:15:47;;;;;;;;;28.25;18.50;;;;;9.32;71.46;102624.94;4897355;28;45423;-53
2021/12/14 10:18:18;;;;;;;;;24.00;19.25;;;;;9.45;71.23;102621.22;4890133;29;45192;-52
2021/12/14 10:20:56;;;;;;;;;20.50;16.25;;;;;9.54;70.69;102617.53;4902914;28;45352;-55
2021/12/14 10:23:23;;;;;;;;;23.50;17.75;;;;;9.58;70.54;102613.06;4902695;28;45350;-55
2021/12/14 10:25:49;;;;;;;;;13.50;11.00;;;;;9.59;70.24;102620.19;4902606;28;46019;-51
2021/12/14 10:28:16;;;;;;;;;24.75;18.00;;;;;9.66;70.30;102619.19;4902900;28;45358;-51
2021/12/14 10:30:56;;;;;;;;;18.75;17.25;;;;;9.65;69.82;102626.34;4902501;28;45383;-55
2021/12/14 10:33:23;;;;;;;;;21.75;20.25;;;;;9.60;69.80;102622.84;4902187;28;45394;-53
2021/12/14 10:35:56;;;;;;;;;17.25;16.25;;;;;9.62;69.79;102621.03;4902485;28;46064;-53
2021/12/14 10:38:34;;;;;;;;;22.00;17.00;;;;;9.45;70.05;102602.47;4902596;28;45349;-53
2021/12/14 10:43:58;;;;;;;;;23.75;17.75;;;;;9.44;70.15;102626.63;4902462;29;45306;-54
2021/12/14 10:46:29;;;;;;;;;21.75;17.50;;;;;9.36;70.31;102626.66;4902257;28;46224;-53
2021/12/14 10:48:56;;;;;;;;;15.25;13.50;;;;;9.35;70.86;102624.94;4901898;28;45430;-55
2021/12/14 10:51:27;;;;;;;;;17.25;16.25;;;;;9.39;70.83;102623.09;4902614;28;45355;-53
2021/12/14 10:53:54;;;;;;;;;15.75;12.25;;;;;9.41;70.72;102635.56;4902286;28;45270;-53
2021/12/14 10:56:25;;;;;;;;;21.00;17.25;;;;;9.40;70.51;102625.75;4902154;28;46201;-54
2021/12/14 10:58:54;;;;;;;;;22.75;16.75;;;;;9.48;70.44;102633.69;4902203;28;45312;-51
2021/12/14 11:01:27;;;;;;;;;19.50;16.75;;;;;9.48;70.82;102617.63;4905153;29;45367;-54
2021/12/14 11:03:57;;;;;;;;;23.50;21.00;;;;;9.56;70.24;102628.25;4905267;28;45240;-53
2021/12/14 11:06:28;;;;;;;;;22.75;19.00;;;;;9.64;70.21;102618.31;4905190;28;47041;-55
2021/12/14 11:11:43;;;;;;;;;27.75;20.00;;;;;9.80;69.78;102627.94;4905704;28;45499;-54
2021/12/14 11:14:14;;;;;;;;;25.50;19.75;;;;;9.75;69.70;102630.69;4905094;28;46338;-54
2021/12/14 11:19:59;;;;;;;;;20.50;19.00;;;;;9.65;69.88;102628.13;4901052;28;46404;-55
2021/12/14 11:22:33;;;;;;;;;26.75;16.75;;;;;9.59;70.29;102618.41;4890689;28;45349;-52
2021/12/14 11:25:08;;;;;;;;;21.50;17.75;;;;;9.56;70.48;102613.06;4904636;29;45363;-52
2021/12/14 11:27:38;;;;;;;;;16.75;15.00;;;;;9.63;70.52;102616.56;4904778;29;45343;-52
2021/12/14 11:30:21;;;;;;;;;23.00;15.00;;;;;9.68;70.17;102618.28;4904613;29;45526;-53
2021/12/14 11:33:06;;;;;;;;;27.00;22.25;;;;;9.73;70.08;102613.75;4903857;28;45453;-50
2021/12/14 11:35:37;;;;;;;;;20.75;19.00;;;;;9.66;69.67;102595.09;4899440;28;45660;-54
2021/12/14 11:38:11;;;;;;;;;28.00;20.00;;;;;9.76;70.03;102604.81;4903351;28;46423;-54
2021/12/14 11:40:37;;;;;;;;;23.50;20.75;;;;;9.92;69.56;102605.47;4903426;28;45435;-50
2021/12/14 11:43:17;;;;;;;;;19.50;14.50;;;;;9.94;69.38;102609.91;4903539;28;45466;-51
2021/12/14 11:45:46;;;;;;;;;22.75;15.75;;;;;9.95;69.50;102613.50;4903235;29;45530;-50
2021/12/14 11:48:13;;;;;;;;;36.00;24.00;;;;;9.95;69.64;102610.81;4902944;29;47097;-52
2021/12/14 11:50:47;;;;;;;;;26.00;20.00;;;;;9.97;69.43;102601.81;4903271;29;45488;-52
2021/12/14 11:53:18;;;;;;;;;29.50;20.75;;;;;10.02;69.54;102605.34;4903081;29;45408;-52
2021/12/14 11:55:55;;;;;;;;;27.25;22.75;;;;;10.04;69.46;102603.50;4903338;28;46112;-56
2021/12/14 11:58:40;;;;;;;;;21.00;15.50;;;;;10.09;69.34;102598.09;4902028;29;46265;-53
2021/12/14 12:01:20;;;;;;;;;25.75;21.75;;;;;10.07;69.19;102598.09;4904305;28;45434;-54
2021/12/14 12:03:48;;;;;;;;;33.75;20.25;;;;;10.05;69.21;102594.56;4893658;29;45342;-56
2021/12/14 12:09:28;;;;;;;;;25.75;18.75;;;;;10.01;69.28;102586.59;4898089;29;45371;-52
2021/12/14 12:12:24;;;;;;;;;24.50;21.00;;;;;9.93;69.27;102576.00;4894227;29;45194;-52
2021/12/14 12:15:08;;;;;;;;;22.25;18.75;;;;;10.07;69.25;102581.13;4899251;29;45279;-52
2021/12/14 12:17:50;;;;;;;;;23.00;20.00;;;;;10.13;69.14;102576.56;4904087;29;45228;-54
2021/12/14 12:20:25;;;;;;;;;28.75;21.50;;;;;10.12;68.90;102582.84;4903786;28;46174;-52
2021/12/14 12:23:11;;;;;;;;;27.50;24.25;;;;;10.13;68.97;102573.00;4902876;29;45407;-53
2021/12/14 12:25:38;;;;;;;;;25.50;23.25;;;;;10.21;68.78;102582.72;4901258;28;45189;-51
2021/12/14 12:28:17;;;;;;;;;32.50;27.00;;;;;10.14;68.45;102570.31;4903725;28;45212;-53
2021/12/14 12:30:49;;;;;;;;;27.50;21.50;;;;;10.21;68.96;102577.38;4903590;28;46233;-54
2021/12/14 12:33:34;;;;;;;;;37.50;26.00;;;;;10.15;69.33;102571.19;4903803;29;45238;-52
2021/12/14 12:36:08;;;;;;;;;24.75;21.50;;;;;10.31;68.96;102594.19;4902218;29;45244;-53
2021/12/14 12:38:57;;;;;;;;;30.50;21.50;;;;;10.27;68.48;102596.97;4904055;28;45391;-52
2021/12/14 12:41:26;;;;;;;;;16.50;15.50;;;;;10.31;68.58;102594.19;4904094;28;45451;-52
2021/12/14 12:43:54;;;;;;;;;29.75;23.00;;;;;10.29;68.53;102596.06;4903717;28;45232;-53
2021/12/14 12:46:21;;;;;;;;;26.25;20.00;;;;;10.30;68.66;102595.13;4903944;29;45239;-53
2021/12/14 12:48:53;;;;;;;;;25.75;22.50;;;;;10.32;68.43;102585.25;4903236;28;45279;-53
2021/12/14 12:51:33;;;;;;;;;31.25;25.25;;;;;10.28;68.99;102570.16;4903858;28;45338;-51
2021/12/14 12:54:26;;;;;;;;;28.00;25.50;;;;;10.37;68.91;102570.00;4903847;29;45312;-52
2021/12/14 12:57:34;;;;;;;;;24.75;24.75;;;;;10.55;68.36;102568.78;4903710;29;45271;-54
2021/12/14 13:00:09;;;;;;;;;25.00;22.00;;;;;10.65;67.78;102562.38;4903336;29;45383;-52
2021/12/14 13:02:46;;;;;;;;;34.25;25.50;;;;;10.69;67.69;102561.41;4903346;28;47050;-53
2021/12/14 13:05:26;;;;;;;;;32.50;27.00;;;;;10.71;66.98;102564.06;4903212;28;45246;-55
2021/12/14 13:07:57;;;;;;;;;28.75;27.75;;;;;10.71;67.42;102554.25;4903574;29;45510;-54
2021/12/14 13:10:35;;;;;;;;;27.25;26.25;;;;;10.77;67.11;102556.81;4903735;28;46106;-51
2021/12/14 13:13:07;;;;;;;;;31.50;25.00;;;;;10.78;67.23;102549.63;4903377;28;46394;-54
2021/12/14 13:15:50;;;;;;;;;36.25;26.50;;;;;10.83;67.16;102554.00;4903370;28;45325;-55
2021/12/14 13:18:31;;;;;;;;;34.25;28.50;;;;;10.83;67.17;102553.13;4900317;29;45182;-55
2021/12/14 13:21:03;;;;;;;;;25.00;25.00;;;;;10.90;67.10;102557.44;4903343;28;46098;-54
2021/12/14 13:23:47;;;;;;;;;41.25;30.00;;;;;10.91;67.28;102565.47;4902595;29;46027;-54
2021/12/14 13:26:31;;;;;;;;;33.25;30.75;;;;;10.87;66.99;102557.53;4903197;29;45452;-54
2021/12/14 13:29:13;;;;;;;;;35.00;26.75;;;;;10.96;67.21;102558.25;4903153;28;45185;-53
2021/12/14 13:31:52;;;;;;;;;31.75;27.00;;;;;10.99;67.05;102563.53;4903149;28;45393;-51
2021/12/14 13:34:35;;;;;;;;;39.25;32.75;;;;;10.99;67.01;102566.22;4901350;29;46416;-51
2021/12/14 13:37:03;;;;;;;;;33.50;30.00;;;;;11.04;66.99;102565.25;4903230;28;45442;-51
2021/12/14 13:39:29;;;;;;;;;35.25;29.50;;;;;11.06;66.89;102574.19;4903409;28;45369;-52
2021/12/14 13:42:12;;;;;;;;;34.75;28.50;;;;;10.96;66.77;102570.78;4903103;28;45482;-52
2021/12/14 13:44:41;;;;;;;;;33.00;26.00;;;;;10.96;66.89;102568.97;4903185;29;45246;-54
2021/12/14 13:47:10;;;;;;;;;30.50;28.00;;;;;11.03;66.76;102577.78;4902886;29;45332;-54
2021/12/14 13:49:38;;;;;;;;;37.50;28.25;;;;;11.06;67.03;102576.84;4902860;28;45262;-52
2021/12/14 13:52:05;;;;;;;;;40.25;32.50;;;;;11.05;66.74;102583.13;4903038;28;45259;-55
2021/12/14 13:55:09;;;;;;;;;29.75;27.00;;;;;11.07;66.80;102568.75;4901544;28;45458;-54
2021/12/14 13:57:39;;;;;;;;;36.50;28.50;;;;;11.07;66.58;102568.75;4902997;29;45301;-51
2021/12/14 14:00:08;;;;;;;;;37.75;33.00;;;;;10.90;66.66;102550.28;4901886;29;45410;-53
2021/12/14 14:02:33;;;;;;;;;36.00;29.75;;;;;11.02;66.81;102575.13;4902780;28;45594;-54
2021/12/14 14:04:58;;;;;;;;;37.25;32.00;;;;;11.01;66.76;102576.94;4902460;28;46145;-53
2021/12/14 14:07:24;;;;;;;;;41.50;24.50;;;;;11.01;66.60;102579.63;4902886;28;45245;-52
2021/12/14 14:09:49;;;;;;;;;30.50;25.50;;;;;11.00;66.62;102586.78;4902927;28;45223;-53
2021/12/14 14:12:19;;;;;;;;;36.50;31.75;;;;;11.02;67.00;102585.88;4902606;28;45468;-53
2021/12/14 14:14:44;;;;;;;;;34.75;31.25;;;;;10.99;66.64;102581.44;4902205;28;46929;-52
2021/12/14 14:17:13;;;;;;;;;37.00;33.00;;;;;10.94;66.63;102588.69;4902764;29;45260;-54
2021/12/14 14:19:42;;;;;;;;;36.00;28.50;;;;;10.91;67.55;102591.41;4902264;28;45460;-52
2021/12/14 14:22:25;;;;;;;;;39.75;34.00;;;;;10.93;67.38;102578.88;4902552;28;45332;-54
2021/12/14 14:25:00;;;;;;;;;38.25;26.75;;;;;10.89;67.61;102582.50;4898976;29;47190;-53
2021/12/14 14:27:38;;;;;;;;;38.25;29.25;;;;;10.88;68.04;102581.66;4902156;29;45621;-51
2021/12/14 14:30:24;;;;;;;;;33.25;27.75;;;;;10.93;67.63;102581.56;4902567;28;45261;-54
2021/12/14 14:33:26;;;;;;;;;34.75;27.75;;;;;10.94;67.94;102573.47;4899280;29;46023;-55
2021/12/14 14:35:52;;;;;;;;;31.75;29.25;;;;;10.92;67.67;102579.78;4901276;29;47050;-54
2021/12/14 14:38:39;;;;;;;;;37.00;32.50;;;;;10.92;67.89;102574.41;4902419;28;45326;-50
2021/12/14 14:41:07;;;;;;;;;38.00;33.00;;;;;10.92;68.06;102577.09;4894519;28;45299;-53
2021/12/14 14:43:55;;;;;;;;;33.75;29.00;;;;;10.90;67.63;102584.28;4902475;29;45522;-53
2021/12/14 14:46:38;;;;;;;;;36.75;33.25;;;;;10.86;67.78;102583.47;4901965;29;46354;-54
2021/12/14 14:49:16;;;;;;;;;47.00;35.00;;;;;10.82;67.85;102579.06;4899482;29;45330;-52
2021/12/14 14:51:56;;;;;;;;;33.75;30.75;;;;;10.77;68.29;102585.44;4902323;28;45359;-53
2021/12/14 14:54:28;;;;;;;;;39.25;28.00;;;;;10.76;67.75;102589.00;4902145;28;45329;-54
2021/12/14 14:56:53;;;;;;;;;37.00;27.00;;;;;10.70;68.41;102586.44;4897520;29;45320;-52
2021/12/14 14:59:19;;;;;;;;;38.00;33.75;;;;;10.69;68.38;102585.56;4901460;28;45252;-56
2021/12/14 15:01:45;;;;;;;;;42.25;31.00;;;;;10.67;68.16;102583.81;4902126;28;45272;-54
2021/12/14 15:04:10;;;;;;;;;39.25;34.50;;;;;10.56;68.46;102579.50;4901757;28;45369;-52
2021/12/14 15:06:39;;;;;;;;;39.00;32.00;;;;;10.57;68.69;102589.31;4901866;28;46251;-54
2021/12/14 15:09:12;;;;;;;;;41.50;31.50;;;;;10.54;69.04;102592.06;4902152;28;45303;-54
2021/12/14 15:11:53;;;;;;;;;40.25;31.25;;;;;10.49;68.94;102585.88;4902032;28;45199;-53
2021/12/14 15:14:37;;;;;;;;;42.25;31.25;;;;;10.53;69.10;102586.72;4901820;28;45817;-52
2021/12/14 15:17:19;;;;;;;;;32.00;31.00;;;;;10.54;68.58;102593.88;4901685;28;47480;-52
2021/12/14 15:19:50;;;;;;;;;38.25;35.50;;;;;10.57;69.06;102589.31;4901423;28;45276;-51
2021/12/14 15:22:28;;;;;;;;;33.25;31.25;;;;;10.63;68.76;102591.88;4901840;29;45379;-53
2021/12/14 15:24:58;;;;;;;;;42.50;27.00;;;;;10.67;68.73;102595.41;4901621;28;45270;-52
2021/12/14 15:27:31;;;;;;;;;40.00;28.75;;;;;10.68;68.50;102599.00;4901307;28;45332;-55
2021/12/14 15:30:02;;;;;;;;;39.25;34.50;;;;;10.70;68.60;102598.06;4901435;28;45355;-54
2021/12/14 15:32:36;;;;;;;;;41.25;31.50;;;;;10.68;68.93;102597.19;4901328;29;45567;-51
2021/12/14 15:35:10;;;;;;;;;42.00;35.50;;;;;10.66;68.85;102595.44;4901551;29;45204;-54
2021/12/14 15:37:46;;;;;;;;;40.50;33.75;;;;;10.67;68.49;102591.84;4897687;29;48508;-53
2021/12/14 15:40:11;;;;;;;;;38.00;34.00;;;;;10.69;68.66;102596.28;4901447;28;45193;-53
2021/12/14 15:42:38;;;;;;;;;34.00;28.75;;;;;10.60;68.97;102600.00;4901558;29;45268;-52
2021/12/14 15:45:04;;;;;;;;;39.75;30.50;;;;;10.56;68.79;102598.28;4901316;28;45201;-56
2021/12/14 15:47:29;;;;;;;;;34.75;29.50;;;;;10.51;69.08;102589.44;4903186;29;45361;-55
2021/12/14 15:50:16;;;;;;;;;40.50;35.75;;;;;10.56;69.13;102594.69;4904656;28;45229;-54
2021/12/14 15:52:41;;;;;;;;;31.25;28.75;;;;;10.54;68.93;102608.16;4904943;29;45335;-53
2021/12/14 15:55:07;;;;;;;;;43.00;30.75;;;;;10.58;68.69;102603.63;4903208;28;45396;-52
2021/12/14 15:57:33;;;;;;;;;38.75;33.50;;;;;10.53;68.99;102601.03;4904917;28;45322;-53
2021/12/14 16:00:04;;;;;;;;;41.25;35.00;;;;;10.56;68.88;102613.47;4902697;28;45324;-51
2021/12/14 16:02:35;;;;;;;;;31.25;29.00;;;;;10.55;68.94;102606.34;4904782;29;45264;-54
2021/12/14 16:05:10;;;;;;;;;41.50;34.25;;;;;10.49;69.16;102604.66;4904121;29;45342;-52
2021/12/14 16:07:39;;;;;;;;;36.75;32.50;;;;;10.49;69.06;102607.34;4904440;28;45253;-51
2021/12/14 16:10:21;;;;;;;;;42.75;35.00;;;;;10.50;69.83;102610.91;4902260;29;46321;-51
2021/12/14 16:15:37;;;;;;;;;37.25;32.25;;;;;10.54;69.17;102608.16;4904328;29;45331;-51
2021/12/14 16:18:05;;;;;;;;;36.25;35.00;;;;;10.55;69.66;102620.63;4903937;28;46070;-55
2021/12/14 16:20:35;;;;;;;;;39.00;33.00;;;;;10.54;69.46;102608.16;4903880;28;45414;-53
2021/12/14 16:23:04;;;;;;;;;41.50;32.00;;;;;10.58;69.57;102614.34;4892267;29;45261;-51
2021/12/14 16:25:52;;;;;;;;;34.00;28.00;;;;;10.58;69.56;102617.91;4904201;29;45511;-53
2021/12/14 16:28:24;;;;;;;;;36.50;31.25;;;;;10.57;69.46;102616.13;4903725;28;47154;-52
2021/12/14 16:31:02;;;;;;;;;42.25;36.00;;;;;10.54;69.45;102626.94;4903747;28;45462;-55
2021/12/14 16:33:40;;;;;;;;;37.00;31.25;;;;;10.54;69.79;102623.38;4903853;28;45280;-54
2021/12/14 16:36:12;;;;;;;;;39.25;34.00;;;;;10.53;69.83;102627.84;4892539;29;45361;-55
2021/12/14 16:38:48;;;;;;;;;33.25;31.75;;;;;10.55;69.97;102630.47;4903052;28;46188;-53
2021/12/14 16:41:19;;;;;;;;;43.25;35.75;;;;;10.60;69.42;102631.31;4904100;29;45518;-55
2021/12/14 16:43:56;;;;;;;;;42.75;34.00;;;;;10.59;69.65;102635.78;4904087;28;45324;-54
2021/12/14 16:46:29;;;;;;;;;43.00;36.00;;;;;10.61;69.91;102638.44;4903875;29;45463;-52
2021/12/14 16:48:55;;;;;;;;;42.00;34.50;;;;;10.60;69.67;102637.56;4891326;29;46333;-54
2021/12/14 16:51:21;;;;;;;;;50.00;37.25;;;;;10.56;70.00;102634.94;4903872;28;45253;-53
2021/12/14 16:53:52;;;;;;;;;33.50;30.75;;;;;10.58;69.72;102639.38;4904244;28;45339;-54
2021/12/14 16:56:19;;;;;;;;;30.50;25.50;;;;;10.61;69.72;102643.81;4903827;28;45305;-51
2021/12/14 16:58:47;;;;;;;;;38.25;33.50;;;;;10.56;70.17;102643.88;4902723;28;45348;-54
2021/12/14 17:01:13;;;;;;;;;42.75;36.50;;;;;10.54;69.85;102650.19;4903569;29;45293;-54
2021/12/14 17:03:42;;;;;;;;;41.50;34.00;;;;;10.55;69.86;102657.28;4903808;28;45341;-55
2021/12/14 17:06:11;;;;;;;;;47.00;37.50;;;;;10.50;69.89;102649.34;4903548;28;45416;-54
2021/12/14 17:08:40;;;;;;;;;37.75;30.25;;;;;10.52;69.80;102652.88;4903779;29;46299;-55
2021/12/14 17:11:13;;;;;;;;;40.00;31.75;;;;;10.51;70.40;102643.06;4903569;28;45468;-53
2021/12/14 17:13:46;;;;;;;;;40.50;36.00;;;;;10.48;70.46;102639.53;4903883;28;45256;-53
2021/12/14 17:16:14;;;;;;;;;34.75;30.50;;;;;10.50;70.46;102646.66;4903524;28;45414;-51
2021/12/14 17:18:45;;;;;;;;;40.25;32.25;;;;;10.55;69.85;102650.13;4903554;28;47097;-52
2021/12/14 17:21:24;;;;;;;;;48.75;34.25;;;;;10.54;70.01;102650.19;4903381;28;45441;-51
2021/12/14 17:24:06;;;;;;;;;46.25;36.50;;;;;10.53;70.24;102651.09;4903676;29;45433;-54
2021/12/14 17:26:33;;;;;;;;;43.00;39.50;;;;;10.53;70.09;102653.78;4903612;28;45288;-54
2021/12/14 17:29:03;;;;;;;;;44.00;36.75;;;;;10.54;70.07;102658.22;4902711;28;46188;-54
2021/12/14 17:31:33;;;;;;;;;43.75;35.50;;;;;10.54;70.36;102661.81;4903045;28;45366;-51
2021/12/14 17:34:02;;;;;;;;;51.00;39.25;;;;;10.54;70.38;102666.28;4903021;28;45185;-53